^^
MeteoGriva-Weather Station Historical Data
Daily Summary for August 21, 2020 Units:  English    Metric   Both
Daily Weekly Monthly Yearly Custom
  High: Low: Average:
Temperature: 43.5 °F 27 °F 34.2 °F
Dew Point: 32.9 °F 23 °F 28.2 °F
Humidity: 88.8% 63.7% 79%
Wind Speed: 2.1mph 0mph 0.1mph
Wind Gust: 7.6mph - -
Wind- - SE
Pressure: 30.9 in 30.6 in -
Precipitation: 0 in    
Historical Graphs
 
 
Tabular Data for August 21, 2020
Time Temperature Dew Point Pressure Wind Wind Speed Wind Gust Humidity Rainfall Rate (Hourly) solar
00:04 31.5 °F 27.1 °F 30.9 in Calm     83.9% 0 in 0 W/m2
00:09 31.5 °F 27 °F 30.9 in Calm     83% 0 in 0 W/m2
00:14 31.6 °F 27.3 °F 30.9 in Calm     83.9% 0 in 0 W/m2
00:19 31.6 °F 27.1 °F 30.9 in Calm     83% 0 in 0 W/m2
00:24 32 °F 27.5 °F 30.9 in Calm     83% 0 in 0 W/m2
00:29 32 °F 27.5 °F 30.9 in Calm     83% 0 in 0 W/m2
00:34 32 °F 27.7 °F 30.9 in Calm     83.7% 0 in 0 W/m2
00:39 32 °F 27.5 °F 30.9 in Calm     83% 0 in 0 W/m2
00:44 32 °F 27.7 °F 30.9 in Calm     83.9% 0 in 0 W/m2
00:49 31.8 °F 27.9 °F 30.9 in Calm     85% 0 in 0 W/m2
00:54 31.6 °F 27.9 °F 30.9 in Calm     85% 0 in 0 W/m2
00:59 31.5 °F 27.5 °F 30.9 in Calm     85.2% 0 in 0 W/m2
01:04 31.5 °F 27.1 °F 30.9 in Calm     83.8% 0 in 0 W/m2
01:09 31.5 °F 27.1 °F 30.9 in Calm     84% 0 in 0 W/m2
01:14 31.3 °F 27.5 °F 30.9 in Calm     85.3% 0 in 0 W/m2
01:19 30.9 °F 27.3 °F 30.9 in Calm     86% 0 in 0 W/m2
01:24 30.6 °F 26.8 °F 30.9 in Calm     85.7% 0 in 0 W/m2
01:29 30.6 °F 26.6 °F 30.9 in Calm     85% 0 in 0 W/m2
01:34 30.6 °F 26.6 °F 30.8 in Calm     85% 0 in 0 W/m2
01:39 30.9 °F 26.6 °F 30.8 in Calm     83.8% 0 in 0 W/m2
01:44 31.5 °F 26.6 °F 30.8 in Calm     82.1% 0 in 0 W/m2
01:49 31.5 °F 27 °F 30.8 in SSW 0.1 mph 2.5 mph 82.9% 0 in 0 W/m2
01:54 31.5 °F 27 °F 30.8 in Calm   2.5 mph 82.9% 0 in 0 W/m2
01:59 31.5 °F 26.8 °F 30.8 in Calm     82.7% 0 in 0 W/m2
02:04 31.1 °F 26.6 °F 30.8 in Calm     83% 0 in 0 W/m2
02:09 31.1 °F 26.8 °F 30.8 in Calm     83.8% 0 in 0 W/m2
02:14 30.9 °F 26.6 °F 30.8 in Calm     83.8% 0 in 0 W/m2
02:19 30.9 °F 26.4 °F 30.8 in Calm     83.1% 0 in 0 W/m2
02:24 30.7 °F 26.2 °F 30.8 in Calm     83% 0 in 0 W/m2
02:29 30.7 °F 26.1 °F 30.8 in Calm     82.5% 0 in 0 W/m2
02:34 30.6 °F 26.4 °F 30.8 in Calm     84.7% 0 in 0 W/m2
02:39 30.2 °F 26.6 °F 30.8 in Calm     86% 0 in 0 W/m2
02:44 29.5 °F 25.9 °F 30.8 in Calm     86.3% 0 in 0 W/m2
02:49 29.5 °F 26.1 °F 30.8 in Calm     87% 0 in 0 W/m2
02:54 29.5 °F 25.9 °F 30.8 in Calm     86.2% 0 in 0 W/m2
02:59 29.3 °F 25.9 °F 30.8 in Calm     86.8% 0 in 0 W/m2
03:04 29.3 °F 25.7 °F 30.8 in Calm     86% 0 in 0 W/m2
03:09 29.1 °F 25.7 °F 30.8 in Calm     86.7% 0 in 0 W/m2
03:14 29.1 °F 25.9 °F 30.8 in Calm     87.7% 0 in 0 W/m2
03:19 28.9 °F 25.9 °F 30.8 in Calm     88% 0 in 0 W/m2
03:24 28.6 °F 25.5 °F 30.8 in Calm     88% 0 in 0 W/m2
03:29 28.6 °F 25.5 °F 30.8 in Calm     88% 0 in 0 W/m2
03:34 28.6 °F 25.5 °F 30.8 in Calm     88.4% 0 in 0 W/m2
03:39 28.4 °F 25.5 °F 30.8 in Calm     88.7% 0 in 0 W/m2
03:44 28.2 °F 25.3 °F 30.8 in Calm     88.8% 0 in 0 W/m2
03:49 28.2 °F 25.3 °F 30.8 in Calm     88.3% 0 in 0 W/m2
03:54 28.4 °F 25.3 °F 30.8 in Calm     88% 0 in 0 W/m2
03:59 28.4 °F 25.2 °F 30.8 in Calm     87.4% 0 in 0 W/m2
04:04 28.8 °F 25.2 °F 30.8 in Calm     86.2% 0 in 0 W/m2
04:09 28.8 °F 25.2 °F 30.8 in Calm     86% 0 in 0 W/m2
04:14 28.8 °F 25.3 °F 30.8 in Calm     86.4% 0 in 0 W/m2
04:19 28.8 °F 25.2 °F 30.8 in Calm     86.8% 0 in 0 W/m2
04:24 28.6 °F 24.6 °F 30.8 in Calm     85.1% 0 in 0 W/m2
04:29 28.6 °F 25 °F 30.8 in Calm     85.8% 0 in 0 W/m2
04:34 28.6 °F 25.2 °F 30.8 in Calm     86.9% 0 in 0 W/m2
04:39 28.6 °F 25.2 °F 30.8 in Calm     86.9% 0 in 0 W/m2
04:44 28.8 °F 25.2 °F 30.8 in Calm     86% 0 in 0 W/m2
04:49 28.6 °F 25.2 °F 30.8 in Calm     86.7% 0 in 0 W/m2
04:54 28.6 °F 25.2 °F 30.8 in Calm     87% 0 in 0 W/m2
04:59 28.6 °F 25.2 °F 30.8 in Calm     86.7% 0 in 0 W/m2
05:04 29.1 °F 25.2 °F 30.8 in Calm     85.2% 0 in 0 W/m2
05:09 29.1 °F 25.2 °F 30.8 in Calm     84.9% 0 in 0 W/m2
05:14 29.1 °F 25 °F 30.8 in Calm     83.8% 0 in 0 W/m2
05:19 29.1 °F 25 °F 30.8 in Calm     84% 0 in 0 W/m2
05:24 29.1 °F 24.8 °F 30.8 in Calm     83.4% 0 in 0 W/m2
05:29 29.1 °F 24.8 °F 30.8 in Calm     83.7% 0 in 0 W/m2
05:34 29.1 °F 25 °F 30.8 in Calm     84% 0 in 0 W/m2
05:39 28.9 °F 25 °F 30.8 in Calm     85.2% 0 in 0 W/m2
05:44 28.2 °F 24.6 °F 30.8 in Calm     86% 0 in 0 W/m2
05:49 28.4 °F 24.8 °F 30.8 in Calm     86.1% 0 in 0 W/m2
05:54 28.4 °F 24.6 °F 30.8 in Calm     85.6% 0 in 0 W/m2
05:59 28.6 °F 24.6 °F 30.8 in Calm     85% 0 in 0 W/m2
06:04 29.1 °F 25.2 °F 30.8 in Calm     84.9% 0 in 0 W/m2
06:09 29.1 °F 25 °F 30.8 in Calm     84% 0 in 0 W/m2
06:14 29.1 °F 25 °F 30.8 in Calm     84.1% 0 in 0 W/m2
06:19 28.9 °F 24.3 °F 30.8 in Calm     82.6% 0 in 0 W/m2
06:24 28.8 °F 24.1 °F 30.8 in Calm     82.6% 0 in 0 W/m2
06:29 28.8 °F 23.7 °F 30.8 in Calm   2.5 mph 81.3% 0 in 0 W/m2
06:34 28.9 °F 23.7 °F 30.8 in Calm     80.8% 0 in 0 W/m2
06:39 28.9 °F 24.4 °F 30.8 in Calm     83.4% 0 in 0 W/m2
06:44 27.9 °F 23.7 °F 30.8 in Calm     85% 0 in 0 W/m2
06:49 27.5 °F 23.9 °F 30.8 in Calm     85.8% 0 in 0 W/m2
06:54 27.5 °F 23.9 °F 30.8 in Calm     86% 0 in 0 W/m2
06:59 27.5 °F 23.5 °F 30.8 in Calm     85.2% 0 in 0 W/m2
07:04 27.1 °F 23.4 °F 30.8 in Calm     85.8% 0 in 0 W/m2
07:09 27 °F 23.4 °F 30.8 in Calm     86% 0 in 0 W/m2
07:14 27 °F 23 °F 30.8 in Calm     85% 0 in 0 W/m2
07:19 27.1 °F 23.2 °F 30.8 in Calm     84.8% 0 in 0 W/m2
07:24 27.1 °F 23.4 °F 30.8 in Calm     85.6% 0 in 0 W/m2
07:29 27.1 °F 23.7 °F 30.8 in Calm     86.8% 0 in 0 W/m2
07:34 27.1 °F 23.7 °F 30.8 in Calm     86.8% 0 in 0 W/m2
07:39 27.3 °F 23.2 °F 30.8 in Calm     84.6% 0 in 0 W/m2
07:44 27.3 °F 23.5 °F 30.8 in Calm     85.6% 0 in 0 W/m2
07:49 27.3 °F 23.7 °F 30.8 in Calm     86% 0 in 0 W/m2
07:54 27.5 °F 23.9 °F 30.8 in Calm     86.1% 0 in 0 W/m2
07:59 27.5 °F 24.1 °F 30.8 in Calm     87% 0 in 4 W/m2
08:04 27.9 °F 24.4 °F 30.8 in Calm     87% 0 in 7 W/m2
08:09 28 °F 24.6 °F 30.8 in Calm     86.7% 0 in 11 W/m2
08:14 28.2 °F 24.4 °F 30.8 in Calm     85.6% 0 in 17 W/m2
08:19 28.4 °F 24.3 °F 30.8 in Calm     84.1% 0 in 22 W/m2
08:24 29.8 °F 25 °F 30.8 in Calm     82% 0 in 26 W/m2
08:29 30.7 °F 25.2 °F 30.8 in Calm     79.8% 0 in 31 W/m2
08:34 30.9 °F 25.3 °F 30.8 in Calm     79.3% 0 in 36 W/m2
08:39 31.1 °F 25.9 °F 30.8 in Calm     80.6% 0 in 39 W/m2
08:44 30.4 °F 25.5 °F 30.8 in Calm     82% 0 in 43 W/m2
08:49 30 °F 25.2 °F 30.8 in Calm     81.8% 0 in 46 W/m2
08:54 30 °F 25.2 °F 30.8 in Calm     81.9% 0 in 50 W/m2
08:59 30 °F 25.2 °F 30.8 in Calm     82% 0 in 54 W/m2
09:04 30.6 °F 25.9 °F 30.8 in Calm     82% 0 in 56 W/m2
09:09 30.9 °F 25.7 °F 30.8 in Calm     80.8% 0 in 60 W/m2
09:14 31.5 °F 24.8 °F 30.8 in Calm     76.1% 0 in 63 W/m2
09:19 32 °F 25.2 °F 30.8 in Calm     75.4% 0 in 66 W/m2
09:24 34.3 °F 27.3 °F 30.8 in Calm     75.4% 0 in 68 W/m2
09:29 35.6 °F 28.4 °F 30.8 in Calm     75.1% 0 in 71 W/m2
09:34 35.6 °F 28.8 °F 30.8 in Calm     76% 0 in 72 W/m2
09:39 35.6 °F 28.2 °F 30.8 in Calm     74.4% 0 in 74 W/m2
09:44 36.7 °F 28.8 °F 30.8 in Calm     73% 0 in 77 W/m2
09:49 37.2 °F 29.8 °F 30.8 in Calm   2.5 mph 74.4% 0 in 78 W/m2
09:54 37 °F 29.7 °F 30.8 in Calm     74.6% 0 in 80 W/m2
09:59 37 °F 28.9 °F 30.8 in Calm     72.4% 0 in 81 W/m2
10:04 35.6 °F 29.5 °F 30.8 in NE 0.2 mph 2.5 mph 77.6% 0 in 81 W/m2
10:09 34.2 °F 28.4 °F 30.8 in ENE 0.1 mph 2.5 mph 79% 0 in 81 W/m2
10:14 34.2 °F 28.4 °F 30.8 in ENE 0.2 mph 4.9 mph 79.1% 0 in 82 W/m2
10:19 34.2 °F 28.2 °F 30.8 in ENE 0.3 mph 2.5 mph 78.7% 0 in 83 W/m2
10:24 33.8 °F 28 °F 30.8 in ENE 0.4 mph 2.5 mph 79.5% 0 in 83 W/m2
10:29 33.4 °F 27.9 °F 30.8 in Calm   2.5 mph 80% 0 in 83 W/m2
10:34 33.4 °F 27.9 °F 30.8 in Calm   2.5 mph 79.3% 0 in 84 W/m2
10:39 33.6 °F 27.5 °F 30.8 in East 0.1 mph 2.5 mph 78% 0 in 85 W/m2
10:44 34.3 °F 27.9 °F 30.8 in Calm   2.5 mph 76.9% 0 in 86 W/m2
10:49 35.2 °F 28.2 °F 30.8 in NNE 0.2 mph 2.5 mph 75.4% 0 in 88 W/m2
10:54 35.4 °F 28 °F 30.8 in ESE 0.2 mph 2.5 mph 74.1% 0 in 90 W/m2
10:59 35.6 °F 28.4 °F 30.8 in Calm   2.5 mph 74.1% 0 in 92 W/m2
11:04 36.5 °F 28.8 °F 30.8 in Calm     73.2% 0 in 97 W/m2
11:09 37.8 °F 29.7 °F 30.8 in Calm     72.8% 0 in 100 W/m2
11:14 37.8 °F 29.5 °F 30.8 in ESE 0.1 mph 4.9 mph 72.3% 0 in 102 W/m2
11:19 37.8 °F 29.5 °F 30.8 in Calm     72% 0 in 105 W/m2
11:24 37.9 °F 29.5 °F 30.8 in SE 0.6 mph 4.9 mph 71.6% 0 in 106 W/m2
11:29 38.3 °F 29.7 °F 30.8 in ESE 0.3 mph 4.9 mph 71% 0 in 110 W/m2
11:34 38.3 °F 29.7 °F 30.8 in ENE 0.1 mph 4.9 mph 71.1% 0 in 112 W/m2
11:39 38.3 °F 30.2 °F 30.8 in NNE 0.1 mph 4.9 mph 72.5% 0 in 115 W/m2
11:44 37.9 °F 29.7 °F 30.8 in Calm   2.5 mph 72.1% 0 in 118 W/m2
11:49 37.6 °F 29.1 °F 30.8 in NE 0.4 mph 2.5 mph 71.1% 0 in 120 W/m2
11:54 37.8 °F 29.3 °F 30.8 in NE 0.4 mph 4.9 mph 71.6% 0 in 112 W/m2
11:59 37.9 °F 29.1 °F 30.8 in ESE 0.2 mph 4.9 mph 70.3% 0 in 92 W/m2
12:04 39 °F 29.7 °F 30.8 in South 0.5 mph 4.9 mph 68.9% 0 in 88 W/m2
12:09 40.5 °F 30.9 °F 30.8 in South 0.2 mph 4.9 mph 68.6% 0 in 88 W/m2
12:14 40.5 °F 30.7 °F 30.8 in SE 0.1 mph 4.9 mph 68.2% 0 in 87 W/m2
12:19 40.5 °F 30.7 °F 30.8 in SE 0.2 mph 4.9 mph 68% 0 in 95 W/m2
12:24 40.3 °F 30.9 °F 30.8 in Calm   2.5 mph 69.1% 0 in 136 W/m2
12:29 40.3 °F 30.7 °F 30.8 in SSE 1.6 mph 7.6 mph 68.4% 0 in 168 W/m2
12:34 40.3 °F 30.7 °F 30.8 in South 1.2 mph 7.6 mph 68.2% 0 in 176 W/m2
12:39 40.5 °F 30.6 °F 30.8 in South 0.4 mph 4.9 mph 67.8% 0 in 184 W/m2
12:44 40.6 °F 30.9 °F 30.8 in SSE 1.2 mph 4.9 mph 67.6% 0 in 195 W/m2
12:49 41.2 °F 31.3 °F 30.8 in South 1.2 mph 7.6 mph 67.7% 0 in 205 W/m2
12:54 41.2 °F 31.3 °F 30.8 in SSE 1.2 mph 7.6 mph 67.7% 0 in 214 W/m2
12:59 41.2 °F 31.3 °F 30.8 in SSE 0.7 mph 4.9 mph 67.6% 0 in 224 W/m2
13:04 41.2 °F 31.1 °F 30.8 in SE 0.6 mph 4.9 mph 67.1% 0 in 237 W/m2
13:09 41.4 °F 31.3 °F 30.8 in SSE 1.5 mph 7.6 mph 67% 0 in 247 W/m2
13:14 41.4 °F 31.5 °F 30.8 in SE 0.3 mph 7.6 mph 67.7% 0 in 258 W/m2
13:19 41.4 °F 31.3 °F 30.8 in SSW 0.4 mph 4.9 mph 66.9% 0 in 266 W/m2
13:24 41.4 °F 31.3 °F 30.8 in ESE 0.8 mph 7.6 mph 66.9% 0 in 269 W/m2
13:29 40.8 °F 31.3 °F 30.8 in SSE 2.1 mph 7.6 mph 68.3% 0 in 271 W/m2
13:34 41 °F 31.3 °F 30.8 in SSE 1.1 mph 7.6 mph 67.7% 0 in 278 W/m2
13:39 41.2 °F 31.1 °F 30.8 in SSE 1.9 mph 4.9 mph 67% 0 in 282 W/m2
13:44 41.4 °F 31.6 °F 30.7 in SSE 2 mph 7.6 mph 67.9% 0 in 284 W/m2
13:49 41.5 °F 32 °F 30.7 in SE 0.7 mph 7.6 mph 68.2% 0 in 288 W/m2
13:54 41.5 °F 31.8 °F 30.7 in SSE 1.2 mph 7.6 mph 68% 0 in 290 W/m2
13:59 41.5 °F 31.6 °F 30.7 in SSE 0.7 mph 4.9 mph 67.6% 0 in 291 W/m2
14:04 41.7 °F 31.8 °F 30.7 in SSE 1.7 mph 4.9 mph 67.4% 0 in 294 W/m2
14:09 42.1 °F 32 °F 30.7 in SSE 0.6 mph 4.9 mph 67.4% 0 in 294 W/m2
14:14 42.1 °F 32 °F 30.7 in South 0.9 mph 4.9 mph 67.2% 0 in 292 W/m2
14:19 42.1 °F 31.8 °F 30.7 in South 0.1 mph 2.5 mph 66.8% 0 in 292 W/m2
14:24 42.3 °F 31.6 °F 30.7 in SSE 1.1 mph 4.9 mph 66% 0 in 292 W/m2
14:29 43 °F 32.5 °F 30.7 in ESE 0.4 mph 4.9 mph 66.2% 0 in 291 W/m2
14:34 43 °F 32.5 °F 30.7 in SSE 0.4 mph 2.5 mph 66.6% 0 in 291 W/m2
14:39 43 °F 32.4 °F 30.7 in Calm   2.5 mph 66% 0 in 288 W/m2
14:44 43 °F 32.2 °F 30.7 in Calm     65.4% 0 in 287 W/m2
14:49 41.5 °F 31.6 °F 30.7 in East 0.2 mph 4.9 mph 67.2% 0 in 284 W/m2
14:54 41.5 °F 31.5 °F 30.7 in Calm   2.5 mph 66.8% 0 in 280 W/m2
14:59 41.9 °F 31.3 °F 30.7 in Calm     66% 0 in 244 W/m2
15:04 42.3 °F 31.3 °F 30.7 in South 0.2 mph 2.5 mph 65.3% 0 in 268 W/m2
15:09 43.2 °F 32.2 °F 30.7 in SSE 0.2 mph 4.9 mph 65.1% 0 in 268 W/m2
15:14 43.2 °F 32.2 °F 30.7 in SSE 0.2 mph 2.5 mph 65.2% 0 in 264 W/m2
15:19 43.3 °F 32 °F 30.7 in South 0.1 mph 2.5 mph 64.3% 0 in 260 W/m2
15:24 43.5 °F 32 °F 30.7 in SSE 0.2 mph 4.9 mph 63.7% 0 in 256 W/m2
15:29 43.5 °F 32.4 °F 30.7 in SSE 0.2 mph 4.9 mph 64.2% 0 in 250 W/m2
15:34 43.5 °F 32.5 °F 30.7 in SSW 0.3 mph 4.9 mph 64.9% 0 in 241 W/m2
15:39 43.5 °F 32.7 °F 30.7 in South 1 mph 4.9 mph 65.4% 0 in 234 W/m2
15:44 43.3 °F 32.9 °F 30.7 in SE 0.4 mph 4.9 mph 66.2% 0 in 226 W/m2
15:49 43.2 °F 32.5 °F 30.7 in South 0.2 mph 4.9 mph 66.1% 0 in 220 W/m2
15:54 43 °F 32.5 °F 30.7 in Calm   4.9 mph 66.2% 0 in 214 W/m2
15:59 43 °F 32.7 °F 30.7 in SE 0.2 mph 4.9 mph 67% 0 in 205 W/m2
16:04 43 °F 32.4 °F 30.7 in Calm   4.9 mph 66.2% 0 in 179 W/m2
16:09 41.7 °F 32 °F 30.7 in SSE 0.4 mph 4.9 mph 68% 0 in 76 W/m2
16:14 41.5 °F 32.4 °F 30.7 in Calm   4.9 mph 69.3% 0 in 44 W/m2
16:19 41.4 °F 32.4 °F 30.7 in SSE 0.1 mph 2.5 mph 70.1% 0 in 41 W/m2
16:24 41.2 °F 32.5 °F 30.7 in Calm     71.1% 0 in 38 W/m2
16:29 39.7 °F 31.3 °F 30.7 in Calm     71.7% 0 in 34 W/m2
16:34 39.6 °F 31.3 °F 30.7 in Calm   4.9 mph 72.1% 0 in 31 W/m2
16:39 39.4 °F 31.5 °F 30.7 in Calm     72.7% 0 in 28 W/m2
16:44 39.2 °F 31.1 °F 30.7 in Calm     72.5% 0 in 26 W/m2
16:49 37.9 °F 30.2 °F 30.7 in Calm     73.8% 0 in 23 W/m2
16:54 37.6 °F 30.4 °F 30.7 in Calm     75% 0 in 21 W/m2
16:59 37.6 °F 30.6 °F 30.7 in Calm     75.9% 0 in 18 W/m2
17:04 37.4 °F 30.6 °F 30.7 in Calm     76.1% 0 in 16 W/m2
17:09 36.7 °F 30.2 °F 30.7 in Calm     77% 0 in 13 W/m2
17:14 36.3 °F 29.8 °F 30.7 in Calm     77% 0 in 10 W/m2
17:19 36.3 °F 30.2 °F 30.7 in Calm     78.2% 0 in 8 W/m2
17:24 36.3 °F 30.4 °F 30.7 in Calm     79% 0 in 5 W/m2
17:29 35.8 °F 29.8 °F 30.7 in Calm     79% 0 in 3 W/m2
17:34 35.6 °F 29.7 °F 30.7 in Calm     79% 0 in 0 W/m2
17:39 35.6 °F 29.8 °F 30.7 in Calm     79.2% 0 in 0 W/m2
17:44 35.6 °F 30 °F 30.7 in Calm     80% 0 in 0 W/m2
17:49 35.4 °F 29.8 °F 30.7 in Calm     80% 0 in 0 W/m2
17:54 35.2 °F 29.8 °F 30.7 in Calm     80.2% 0 in 0 W/m2
17:59 35.2 °F 30 °F 30.7 in Calm     81% 0 in 0 W/m2
18:04 35.1 °F 29.8 °F 30.7 in Calm     80.8% 0 in 0 W/m2
18:09 35.1 °F 29.5 °F 30.7 in Calm     80.3% 0 in 0 W/m2
18:14 34.9 °F 29.7 °F 30.7 in Calm     81% 0 in 0 W/m2
18:19 34.9 °F 29.5 °F 30.7 in Calm     80.6% 0 in 0 W/m2
18:24 34.9 °F 29.3 °F 30.7 in Calm     80% 0 in 0 W/m2
18:29 34.7 °F 29.3 °F 30.7 in Calm     80.6% 0 in 0 W/m2
18:34 34.5 °F 29.3 °F 30.7 in Calm     80.6% 0 in 0 W/m2
18:39 34.7 °F 29.1 °F 30.7 in Calm     80% 0 in 0 W/m2
18:44 34.7 °F 29.1 °F 30.7 in Calm     80% 0 in 0 W/m2
18:49 34.9 °F 29.3 °F 30.7 in Calm     80% 0 in 0 W/m2
18:54 34.7 °F 29.1 °F 30.7 in Calm     80% 0 in 0 W/m2
18:59 34.7 °F 29.5 °F 30.7 in Calm     81% 0 in 0 W/m2
19:04 34.5 °F 29.7 °F 30.7 in Calm     81.7% 0 in 0 W/m2
19:09 34.3 °F 29.3 °F 30.7 in Calm     81.4% 0 in 0 W/m2
19:14 34.3 °F 29.3 °F 30.7 in Calm     81.6% 0 in 0 W/m2
19:19 34.2 °F 29.1 °F 30.7 in Calm     81.6% 0 in 0 W/m2
19:24 34.3 °F 28.9 °F 30.7 in Calm     81% 0 in 0 W/m2
19:29 34.3 °F 29.3 °F 30.7 in Calm     81.3% 0 in 0 W/m2
19:34 34.2 °F 29.3 °F 30.7 in Calm     81.8% 0 in 0 W/m2
19:39 34.2 °F 29.3 °F 30.7 in Calm     81.8% 0 in 0 W/m2
19:44 34.2 °F 29.3 °F 30.7 in Calm     82% 0 in 0 W/m2
19:49 34.2 °F 29.3 °F 30.7 in Calm     82% 0 in 0 W/m2
19:54 34 °F 28.9 °F 30.7 in Calm     81.3% 0 in 0 W/m2
19:59 34 °F 28.6 °F 30.7 in Calm     80.6% 0 in 0 W/m2
20:04 34.2 °F 28.9 °F 30.7 in Calm     81% 0 in 0 W/m2
20:09 34.3 °F 28.8 °F 30.7 in Calm     80.2% 0 in 0 W/m2
20:14 34.5 °F 29.1 °F 30.7 in Calm     80.6% 0 in 0 W/m2
20:19 34.5 °F 29.5 °F 30.7 in Calm     81.3% 0 in 0 W/m2
20:24 34.3 °F 29.5 °F 30.7 in Calm     82% 0 in 0 W/m2
20:29 34.3 °F 29.1 °F 30.7 in Calm     81.3% 0 in 0 W/m2
20:34 34.5 °F 28.9 °F 30.7 in Calm     80% 0 in 0 W/m2
20:39 34.5 °F 28.9 °F 30.7 in Calm     80% 0 in 0 W/m2
20:44 34.5 °F 28.9 °F 30.7 in Calm     80% 0 in 0 W/m2
20:49 34.5 °F 28.9 °F 30.7 in Calm     80% 0 in 0 W/m2
20:54 34.5 °F 28.6 °F 30.7 in Calm     78.7% 0 in 0 W/m2
20:59 34.5 °F 28.4 °F 30.7 in Calm     78% 0 in 0 W/m2
21:04 34.5 °F 28.6 °F 30.6 in Calm     78.6% 0 in 0 W/m2
21:09 34.7 °F 28.9 °F 30.6 in Calm     79% 0 in 0 W/m2
21:14 34.5 °F 28.9 °F 30.7 in Calm     79.6% 0 in 0 W/m2
21:19 34.5 °F 28.9 °F 30.7 in Calm     79.8% 0 in 0 W/m2
21:24 34.3 °F 28.8 °F 30.7 in Calm     80% 0 in 0 W/m2
21:29 34.3 °F 28.8 °F 30.7 in Calm     79.2% 0 in 0 W/m2
21:34 34.3 °F 28.8 °F 30.7 in Calm     79% 0 in 0 W/m2
21:39 34.3 °F 28.6 °F 30.6 in Calm     78.9% 0 in 0 W/m2
21:44 34.3 °F 28.2 °F 30.6 in Calm     77.7% 0 in 0 W/m2
21:49 34.9 °F 28.4 °F 30.6 in Calm     77% 0 in 0 W/m2
21:54 35.6 °F 28.9 °F 30.6 in Calm     76.7% 0 in 0 W/m2
21:59 35.6 °F 29.1 °F 30.6 in Calm     77% 0 in 0 W/m2
22:04 35.6 °F 29.1 °F 30.6 in Calm     77% 0 in 0 W/m2
22:09 35.4 °F 29.3 °F 30.7 in Calm     77.7% 0 in 0 W/m2
22:14 34.9 °F 28.9 °F 30.7 in Calm     78.3% 0 in 0 W/m2
22:19 34.9 °F 28.8 °F 30.7 in Calm     78.1% 0 in 0 W/m2
22:24 34.9 °F 29.1 °F 30.7 in Calm     79% 0 in 0 W/m2
22:29 34.9 °F 29.1 °F 30.7 in Calm     79% 0 in 0 W/m2
22:34 34.3 °F 28.6 °F 30.6 in Calm     79.3% 0 in 0 W/m2
22:39 34.3 °F 28.6 °F 30.7 in Calm     79.3% 0 in 0 W/m2
22:44 34.3 °F 28.6 °F 30.6 in Calm     79.7% 0 in 0 W/m2
22:49 34.2 °F 28.4 °F 30.6 in Calm     80% 0 in 0 W/m2
22:54 33.6 °F 28 °F 30.6 in Calm     80% 0 in 0 W/m2
22:59 33.6 °F 28 °F 30.6 in Calm     80% 0 in 0 W/m2
23:04 33.6 °F 28 °F 30.6 in Calm     80% 0 in 0 W/m2
23:09 33.6 °F 28 °F 30.6 in Calm     80% 0 in 0 W/m2
23:14 34 °F 28.2 °F 30.6 in Calm     79.1% 0 in 0 W/m2
23:19 33.8 °F 28.2 °F 30.6 in Calm     80% 0 in 0 W/m2
23:24 33.8 °F 28.2 °F 30.6 in Calm     80% 0 in 0 W/m2
23:29 33.6 °F 28 °F 30.6 in Calm     80% 0 in 0 W/m2
23:34 33.6 °F 28 °F 30.6 in Calm     80% 0 in 0 W/m2
23:39 33.6 °F 27.9 °F 30.6 in Calm     79.4% 0 in 0 W/m2
23:44 33.6 °F 28 °F 30.6 in Calm     79.6% 0 in 0 W/m2
23:49 33.6 °F 28 °F 30.6 in Calm     79% 0 in 0 W/m2
23:54 34.2 °F 28.2 °F 30.6 in Calm     79% 0 in 0 W/m2
23:59 34 °F 28.2 °F 30.6 in Calm     78.9% 0 in 0 W/m2
Juneau County Weather
Compliments of Weather Underground - 2 mb